Time,TemperatureF,DewpointF,PressureIn,WindDirection,WindDirectionDegrees,WindSpeedMPH,WindSpeedGustMPH,Humidity,HourlyPrecipIn,Conditions,Clouds,dailyrainin,SoftwareType,DateUTC
2013-02-01 00:03:00,42.0,36.0,30.16,NW,324,0.0,0.0,80,0.00,,,0.12,,2013-02-01 05:03:00,
2013-02-01 00:12:00,42.0,36.0,30.16,NW,324,0.0,0.0,80,0.00,,,0.12,,2013-02-01 05:12:00,
2013-02-01 00:22:00,42.0,37.0,30.16,NW,324,0.0,0.0,81,0.00,,,0.12,,2013-02-01 05:22:00,
2013-02-01 00:32:00,42.0,37.0,30.16,NW,324,0.0,0.0,82,0.00,,,0.12,,2013-02-01 05:32:00,
2013-02-01 00:52:00,42.0,37.0,30.16,NW,324,0.0,0.0,83,0.00,,,0.12,,2013-02-01 05:52:00,
2013-02-01 01:02:00,41.0,36.0,30.16,North,5,0.0,1.0,83,0.00,,,0.12,,2013-02-01 06:02:00,
2013-02-01 01:22:00,41.0,37.0,30.16,ENE,62,0.0,2.0,84,0.00,,,0.12,,2013-02-01 06:22:00,
2013-02-01 01:32:00,41.0,37.0,30.16,North,9,0.0,2.0,85,0.00,,,0.12,,2013-02-01 06:32:00,
2013-02-01 01:52:00,41.0,37.0,30.15,NE,46,0.0,0.0,85,0.00,,,0.12,,2013-02-01 06:52:00,
2013-02-01 02:02:00,41.0,37.0,30.15,NNE,15,0.0,0.0,85,0.00,,,0.11,,2013-02-01 07:02:00,
2013-02-01 02:22:00,41.0,37.0,30.15,NNE,15,0.0,0.0,86,0.00,,,0.10,,2013-02-01 07:22:00,
2013-02-01 02:32:00,41.0,37.0,30.16,NNE,19,0.0,2.0,86,0.00,,,0.10,,2013-02-01 07:32:00,
2013-02-01 02:51:00,41.0,37.0,30.16,NNE,13,0.0,2.0,86,0.00,,,0.09,,2013-02-01 07:51:00,
2013-02-01 03:01:00,41.0,37.0,30.16,North,350,1.0,3.0,86,0.00,,,0.06,,2013-02-01 08:01:00,
2013-02-01 03:11:00,41.0,37.0,30.16,North,350,1.0,3.0,86,0.00,,,0.06,,2013-02-01 08:11:00,
2013-02-01 03:21:00,42.0,38.0,30.16,North,355,1.0,4.0,84,0.00,,,0.04,,2013-02-01 08:21:00,
2013-02-01 03:32:00,42.0,37.0,30.15,NNE,27,0.0,0.0,83,0.00,,,0.03,,2013-02-01 08:32:00,
2013-02-01 03:42:00,42.0,37.0,30.15,NNE,27,0.0,0.0,83,0.00,,,0.03,,2013-02-01 08:42:00,
2013-02-01 03:52:00,42.0,37.0,30.16,NE,46,0.0,0.0,81,0.00,,,0.03,,2013-02-01 08:52:00,
2013-02-01 04:02:00,42.0,36.0,30.16,North,5,0.0,0.0,80,0.00,,,0.03,,2013-02-01 09:02:00,
2013-02-01 04:11:00,42.0,36.0,30.16,North,5,0.0,0.0,80,0.00,,,0.03,,2013-02-01 09:11:00,
2013-02-01 04:21:00,42.0,36.0,30.16,NNE,32,0.0,0.0,79,0.00,,,0.03,,2013-02-01 09:21:00,
2013-02-01 04:32:00,41.0,35.0,30.16,NE,56,0.0,0.0,78,0.00,,,0.03,,2013-02-01 09:32:00,
2013-02-01 04:42:00,41.0,35.0,30.16,NE,56,0.0,0.0,78,0.00,,,0.03,,2013-02-01 09:42:00,
2013-02-01 04:51:00,41.0,35.0,30.17,NE,38,0.0,0.0,78,0.00,,,0.03,,2013-02-01 09:51:00,
2013-02-01 05:01:00,41.0,34.0,30.17,NE,37,0.0,0.0,77,0.00,,,0.03,,2013-02-01 10:01:00,
2013-02-01 05:11:00,41.0,34.0,30.17,NE,37,0.0,0.0,77,0.00,,,0.03,,2013-02-01 10:11:00,
2013-02-01 05:21:00,41.0,34.0,30.18,NE,37,0.0,0.0,76,0.00,,,0.02,,2013-02-01 10:21:00,
2013-02-01 05:32:00,40.0,33.0,30.18,NE,37,0.0,0.0,76,0.00,,,0.01,,2013-02-01 10:32:00,
2013-02-01 05:42:00,40.0,33.0,30.18,NE,37,0.0,0.0,76,0.00,,,0.01,,2013-02-01 10:42:00,
2013-02-01 05:53:00,40.0,33.0,30.19,NE,37,0.0,0.0,76,0.00,,,0.00,,2013-02-01 10:53:00,
2013-02-01 06:02:00,39.0,32.0,30.19,NE,37,0.0,0.0,76,0.00,,,0.00,,2013-02-01 11:02:00,
2013-02-01 06:11:00,39.0,32.0,30.19,NE,37,0.0,0.0,76,0.00,,,0.00,,2013-02-01 11:11:00,
2013-02-01 06:22:00,39.0,33.0,30.20,NE,37,0.0,0.0,78,0.00,,,0.00,,2013-02-01 11:22:00,
2013-02-01 06:32:00,38.0,32.0,30.20,NE,37,0.0,0.0,79,0.00,,,0.00,,2013-02-01 11:32:00,
2013-02-01 06:42:00,38.0,32.0,30.20,NE,37,0.0,0.0,79,0.00,,,0.00,,2013-02-01 11:42:00,
2013-02-01 06:53:00,38.0,32.0,30.21,NE,37,0.0,0.0,80,0.00,,,0.00,,2013-02-01 11:53:00,
2013-02-01 07:03:00,37.0,32.0,30.22,NE,37,0.0,0.0,81,0.00,,,0.00,,2013-02-01 12:03:00,
2013-02-01 07:12:00,37.0,32.0,30.22,NE,37,0.0,0.0,81,0.00,,,0.00,,2013-02-01 12:12:00,
2013-02-01 07:23:00,37.0,32.0,30.22,NE,37,0.0,0.0,81,0.00,,,0.00,,2013-02-01 12:23:00,
2013-02-01 07:32:00,37.0,32.0,30.23,NE,37,0.0,0.0,82,0.00,,,0.00,,2013-02-01 12:32:00,
2013-02-01 07:42:00,37.0,32.0,30.23,NE,37,0.0,0.0,82,0.00,,,0.00,,2013-02-01 12:42:00,
2013-02-01 07:52:00,36.0,31.0,30.23,NE,37,0.0,0.0,82,0.00,,,0.00,,2013-02-01 12:52:00,
2013-02-01 08:02:00,36.0,31.0,30.24,NE,37,0.0,0.0,83,0.00,,,0.00,,2013-02-01 13:02:00,
2013-02-01 08:12:00,36.0,31.0,30.24,NE,37,0.0,0.0,83,0.00,,,0.00,,2013-02-01 13:12:00,
2013-02-01 08:22:00,36.0,31.0,30.24,NE,37,0.0,0.0,83,0.00,,,0.00,,2013-02-01 13:22:00,
2013-02-01 08:33:00,41.0,37.0,30.25,ENE,60,0.0,0.0,84,0.00,,,0.00,,2013-02-01 13:33:00,
2013-02-01 08:42:00,41.0,37.0,30.25,ENE,60,0.0,0.0,84,0.00,,,0.00,,2013-02-01 13:42:00,
2013-02-01 08:53:00,44.0,38.0,30.26,NE,39,0.0,0.0,79,0.00,,,0.00,,2013-02-01 13:53:00,
2013-02-01 09:03:00,50.0,38.0,30.27,NNE,19,0.0,0.0,64,0.00,,,0.00,,2013-02-01 14:03:00,
2013-02-01 09:12:00,50.0,38.0,30.27,NNE,19,0.0,0.0,64,0.00,,,0.00,,2013-02-01 14:12:00,
2013-02-01 09:22:00,52.0,35.0,30.27,NNE,28,6.0,10.0,53,0.00,,,0.00,,2013-02-01 14:22:00,
2013-02-01 09:32:00,53.0,35.0,30.27,NE,40,3.0,10.0,51,0.00,,,0.00,,2013-02-01 14:32:00,
2013-02-01 09:42:00,53.0,35.0,30.27,NE,40,3.0,10.0,51,0.00,,,0.00,,2013-02-01 14:42:00,
2013-02-01 09:52:00,55.0,34.0,30.28,NNE,26,2.0,6.0,45,0.00,,,0.00,,2013-02-01 14:52:00,
2013-02-01 10:02:00,57.0,33.0,30.28,NNE,12,4.0,8.0,40,0.00,,,0.00,,2013-02-01 15:02:00,
2013-02-01 10:12:00,57.0,30.0,30.28,NNE,20,7.0,13.0,36,0.00,,,0.00,,2013-02-01 15:12:00,
2013-02-01 10:22:00,57.0,30.0,30.28,NNE,20,7.0,13.0,36,0.00,,,0.00,,2013-02-01 15:22:00,
2013-02-01 10:33:00,60.0,29.0,30.28,NNE,19,6.0,10.0,31,0.00,,,0.00,,2013-02-01 15:33:00,
2013-02-01 10:52:00,60.0,27.0,30.28,NNE,27,6.0,9.0,28,0.00,,,0.00,,2013-02-01 15:52:00,
2013-02-01 11:03:00,62.0,29.0,30.29,NE,51,2.0,6.0,28,0.00,,,0.00,,2013-02-01 16:03:00,
2013-02-01 11:11:00,62.0,29.0,30.28,NE,46,6.0,12.0,28,0.00,,,0.00,,2013-02-01 16:11:00,
2013-02-01 11:22:00,62.0,29.0,30.28,NE,46,6.0,12.0,28,0.00,,,0.00,,2013-02-01 16:22:00,
2013-02-01 11:33:00,63.0,29.0,30.28,NE,37,5.0,8.0,28,0.00,,,0.00,,2013-02-01 16:33:00,
2013-02-01 11:43:00,63.0,30.0,30.28,ENE,59,1.0,5.0,29,0.00,,,0.00,,2013-02-01 16:43:00,
2013-02-01 11:52:00,63.0,30.0,30.28,ENE,59,1.0,5.0,29,0.00,,,0.00,,2013-02-01 16:52:00,
2013-02-01 12:03:00,65.0,29.0,30.27,ENE,60,1.0,5.0,26,0.00,,,0.00,,2013-02-01 17:03:00,
2013-02-01 12:12:00,65.0,29.0,30.27,ENE,60,1.0,5.0,26,0.00,,,0.00,,2013-02-01 17:12:00,
2013-02-01 12:22:00,66.0,30.0,30.27,ENE,76,3.0,7.0,26,0.00,,,0.00,,2013-02-01 17:22:00,
2013-02-01 12:32:00,66.0,32.0,30.27,NNE,30,6.0,9.0,28,0.00,,,0.00,,2013-02-01 17:32:00,
2013-02-01 12:42:00,66.0,32.0,30.27,NNE,30,6.0,9.0,28,0.00,,,0.00,,2013-02-01 17:42:00,
2013-02-01 12:52:00,67.0,30.0,30.26,North,360,5.0,10.0,25,0.00,,,0.00,,2013-02-01 17:52:00,
2013-02-01 13:03:00,66.0,30.0,30.25,NE,36,3.0,8.0,26,0.00,,,0.00,,2013-02-01 18:03:00,
2013-02-01 13:12:00,66.0,30.0,30.25,NE,36,3.0,8.0,26,0.00,,,0.00,,2013-02-01 18:12:00,
2013-02-01 13:23:00,67.0,30.0,30.24,NE,40,1.0,2.0,25,0.00,,,0.00,,2013-02-01 18:23:00,
2013-02-01 13:32:00,68.0,30.0,30.23,North,5,3.0,6.0,24,0.00,,,0.00,,2013-02-01 18:32:00,
2013-02-01 13:42:00,68.0,30.0,30.23,North,5,3.0,6.0,24,0.00,,,0.00,,2013-02-01 18:42:00,
2013-02-01 13:52:00,68.0,31.0,30.23,North,360,8.0,11.0,25,0.00,,,0.00,,2013-02-01 18:52:00,
2013-02-01 14:03:00,68.0,31.0,30.22,NE,49,2.0,4.0,25,0.00,,,0.00,,2013-02-01 19:03:00,
2013-02-01 14:12:00,68.0,31.0,30.22,NE,49,2.0,4.0,25,0.00,,,0.00,,2013-02-01 19:12:00,
2013-02-01 14:21:00,68.0,28.0,30.21,NE,49,4.0,6.0,22,0.00,,,0.00,,2013-02-01 19:21:00,
2013-02-01 14:32:00,68.0,28.0,30.20,NE,51,3.0,7.0,22,0.00,,,0.00,,2013-02-01 19:32:00,
2013-02-01 14:42:00,68.0,28.0,30.20,NE,51,3.0,7.0,22,0.00,,,0.00,,2013-02-01 19:42:00,
2013-02-01 14:52:00,69.0,29.0,30.20,ENE,73,6.0,11.0,22,0.00,,,0.00,,2013-02-01 19:52:00,
2013-02-01 15:02:00,70.0,29.0,30.20,North,360,2.0,5.0,22,0.00,,,0.00,,2013-02-01 20:02:00,
2013-02-01 15:11:00,70.0,28.0,30.20,East,86,2.0,5.0,21,0.00,,,0.00,,2013-02-01 20:11:00,
2013-02-01 15:21:00,70.0,28.0,30.20,East,86,2.0,5.0,21,0.00,,,0.00,,2013-02-01 20:21:00,
2013-02-01 15:32:00,70.0,26.0,30.19,NNE,15,2.0,7.0,19,0.00,,,0.00,,2013-02-01 20:32:00,
2013-02-01 15:42:00,70.0,26.0,30.19,NNE,15,2.0,7.0,19,0.00,,,0.00,,2013-02-01 20:42:00,
2013-02-01 15:52:00,70.0,26.0,30.19,NNE,17,6.0,7.0,19,0.00,,,0.00,,2013-02-01 20:52:00,
2013-02-01 16:02:00,69.0,25.0,30.19,NE,50,3.0,5.0,19,0.00,,,0.00,,2013-02-01 21:02:00,
2013-02-01 16:12:00,69.0,25.0,30.19,NE,50,3.0,5.0,19,0.00,,,0.00,,2013-02-01 21:12:00,
2013-02-01 16:22:00,70.0,27.0,30.19,NNE,28,3.0,4.0,20,0.00,,,0.00,,2013-02-01 21:22:00,
2013-02-01 16:32:00,69.0,26.0,30.19,ENE,57,0.0,1.0,20,0.00,,,0.00,,2013-02-01 21:32:00,
2013-02-01 16:42:00,69.0,26.0,30.19,ENE,57,0.0,1.0,20,0.00,,,0.00,,2013-02-01 21:42:00,
2013-02-01 16:52:00,69.0,26.0,30.19,NE,53,0.0,1.0,20,0.00,,,0.00,,2013-02-01 21:52:00,
2013-02-01 17:02:00,67.0,28.0,30.19,North,5,2.0,6.0,23,0.00,,,0.00,,2013-02-01 22:02:00,
2013-02-01 17:11:00,67.0,28.0,30.19,North,5,2.0,6.0,23,0.00,,,0.00,,2013-02-01 22:11:00,
2013-02-01 17:22:00,66.0,28.0,30.19,NNE,13,0.0,1.0,24,0.00,,,0.00,,2013-02-01 22:22:00,
2013-02-01 17:32:00,65.0,28.0,30.19,North,355,0.0,2.0,25,0.00,,,0.00,,2013-02-01 22:32:00,
2013-02-01 17:42:00,65.0,28.0,30.19,North,355,0.0,2.0,25,0.00,,,0.00,,2013-02-01 22:42:00,
2013-02-01 17:51:00,65.0,29.0,30.19,NNW,335,1.0,3.0,26,0.00,,,0.00,,2013-02-01 22:51:00,
2013-02-01 18:02:00,64.0,29.0,30.19,NNW,329,0.0,1.0,27,0.00,,,0.00,,2013-02-01 23:02:00,
2013-02-01 18:11:00,64.0,29.0,30.19,NNW,329,0.0,1.0,27,0.00,,,0.00,,2013-02-01 23:11:00,
2013-02-01 18:21:00,63.0,29.0,30.19,NW,315,0.0,0.0,28,0.00,,,0.00,,2013-02-01 23:21:00,
2013-02-01 18:32:00,62.0,30.0,30.19,NNW,327,0.0,0.0,30,0.00,,,0.00,,2013-02-01 23:32:00,
2013-02-01 18:42:00,62.0,30.0,30.19,NNW,327,0.0,0.0,30,0.00,,,0.00,,2013-02-01 23:42:00,
2013-02-01 18:52:00,61.0,31.0,30.19,NNW,334,0.0,0.0,32,0.00,,,0.00,,2013-02-01 23:52:00,
2013-02-01 19:02:00,58.0,33.0,30.19,NNW,334,0.0,0.0,38,0.00,,,0.00,,2013-02-02 00:02:00,
2013-02-01 19:11:00,58.0,33.0,30.19,NNW,334,0.0,0.0,38,0.00,,,0.00,,2013-02-02 00:11:00,
2013-02-01 19:21:00,57.0,34.0,30.19,NNW,334,0.0,0.0,42,0.00,,,0.00,,2013-02-02 00:21:00,
2013-02-01 19:32:00,55.0,35.0,30.19,NNW,334,0.0,0.0,46,0.00,,,0.00,,2013-02-02 00:32:00,
2013-02-01 19:42:00,55.0,35.0,30.19,NNW,334,0.0,0.0,46,0.00,,,0.00,,2013-02-02 00:42:00,
2013-02-01 19:52:00,54.0,37.0,30.19,NNW,334,0.0,0.0,52,0.00,,,0.00,,2013-02-02 00:52:00,
2013-02-01 20:02:00,53.0,37.0,30.19,NNW,334,0.0,0.0,54,0.00,,,0.00,,2013-02-02 01:02:00,
2013-02-01 20:11:00,53.0,37.0,30.19,NNW,334,0.0,0.0,54,0.00,,,0.00,,2013-02-02 01:11:00,
2013-02-01 20:21:00,53.0,37.0,30.19,NNW,334,0.0,0.0,54,0.00,,,0.00,,2013-02-02 01:21:00,
2013-02-01 20:32:00,51.0,36.0,30.19,NNW,334,0.0,0.0,57,0.00,,,0.00,,2013-02-02 01:32:00,
2013-02-01 20:42:00,51.0,36.0,30.19,NNW,334,0.0,0.0,57,0.00,,,0.00,,2013-02-02 01:42:00,
2013-02-01 20:52:00,50.0,36.0,30.20,NNW,334,0.0,0.0,59,0.00,,,0.00,,2013-02-02 01:52:00,
2013-02-01 21:01:00,49.0,36.0,30.21,NNW,334,0.0,0.0,61,0.00,,,0.00,,2013-02-02 02:01:00,
2013-02-01 21:11:00,49.0,36.0,30.21,NNW,334,0.0,0.0,61,0.00,,,0.00,,2013-02-02 02:11:00,
2013-02-01 21:21:00,48.0,36.0,30.20,NNW,334,0.0,0.0,64,0.00,,,0.00,,2013-02-02 02:21:00,
2013-02-01 21:32:00,48.0,37.0,30.21,NNW,334,0.0,0.0,65,0.00,,,0.00,,2013-02-02 02:32:00,
2013-02-01 21:42:00,48.0,37.0,30.21,NNW,334,0.0,0.0,65,0.00,,,0.00,,2013-02-02 02:42:00,
2013-02-01 21:52:00,47.0,37.0,30.22,NNW,334,0.0,0.0,68,0.00,,,0.00,,2013-02-02 02:52:00,
2013-02-01 22:02:00,46.0,36.0,30.21,NNW,334,0.0,0.0,69,0.00,,,0.00,,2013-02-02 03:02:00,
2013-02-01 22:11:00,46.0,36.0,30.21,NNW,334,0.0,0.0,69,0.00,,,0.00,,2013-02-02 03:11:00,
2013-02-01 22:22:00,46.0,36.0,30.22,NNW,334,0.0,0.0,69,0.00,,,0.00,,2013-02-02 03:22:00,
2013-02-01 22:32:00,46.0,37.0,30.22,NNW,334,0.0,0.0,70,0.00,,,0.00,,2013-02-02 03:32:00,
2013-02-01 22:42:00,45.0,37.0,30.22,NNW,334,0.0,0.0,72,0.00,,,0.00,,2013-02-02 03:42:00,
2013-02-01 22:52:00,45.0,37.0,30.22,NNW,334,0.0,0.0,72,0.00,,,0.00,,2013-02-02 03:52:00,
2013-02-01 23:02:00,44.0,36.0,30.22,NNW,334,0.0,0.0,73,0.00,,,0.00,,2013-02-02 04:02:00,
2013-02-01 23:11:00,44.0,36.0,30.22,NNW,334,0.0,0.0,73,0.00,,,0.00,,2013-02-02 04:11:00,
2013-02-01 23:22:00,44.0,37.0,30.22,NNW,334,0.0,0.0,75,0.00,,,0.00,,2013-02-02 04:22:00,
2013-02-01 23:32:00,43.0,36.0,30.22,NNW,334,0.0,0.0,76,0.00,,,0.00,,2013-02-02 04:32:00,
2013-02-01 23:42:00,43.0,36.0,30.22,NNW,334,0.0,0.0,76,0.00,,,0.00,,2013-02-02 04:42:00,
2013-02-01 23:52:00,43.0,37.0,30.22,NNW,334,0.0,0.0,78,0.00,,,0.00,,2013-02-02 04:52:00,